createdAt,value
2018-02-16T00:02:20.655Z,96.50
2018-02-16T00:04:49.688Z,96.60
2018-02-16T00:07:18.055Z,96.50
2018-02-16T00:09:46.327Z,96.50
2018-02-16T00:12:14.573Z,96.50
2018-02-16T00:14:43.618Z,96.60
2018-02-16T00:17:11.862Z,96.60
2018-02-16T00:19:40.187Z,96.50
2018-02-16T00:22:08.476Z,96.40
2018-02-16T00:24:36.763Z,96.40
2018-02-16T00:27:05.014Z,96.60
2018-02-16T00:29:34.111Z,96.60
2018-02-16T00:32:02.354Z,96.40
2018-02-16T00:34:30.609Z,96.30
2018-02-16T00:36:58.931Z,96.40
2018-02-16T00:39:27.386Z,96.20
2018-02-16T00:41:55.907Z,96.20
2018-02-16T00:44:24.138Z,96.30
2018-02-16T00:46:52.558Z,96.20
2018-02-16T00:49:20.894Z,96.20
2018-02-16T00:51:49.171Z,96.10
2018-02-16T00:54:17.406Z,96.10
2018-02-16T00:56:46.506Z,96.10
2018-02-16T00:59:14.765Z,96.10
2018-02-16T01:01:43.790Z,96.00
2018-02-16T01:04:12.038Z,96.00
2018-02-16T01:06:40.399Z,96.00
2018-02-16T01:09:09.531Z,96.00
2018-02-16T01:11:37.911Z,95.90
2018-02-16T01:14:06.178Z,95.90
2018-02-16T01:16:34.426Z,95.90
2018-02-16T01:19:03.446Z,95.80
2018-02-16T01:21:31.720Z,95.80
2018-02-16T01:24:00.022Z,95.80
2018-02-16T01:26:28.275Z,95.80
2018-02-16T01:28:56.551Z,95.80
2018-02-16T01:31:24.790Z,95.70
2018-02-16T01:33:53.922Z,95.70
2018-02-16T01:36:22.179Z,95.70
2018-02-16T01:38:50.459Z,95.80
2018-02-16T01:41:18.710Z,95.80
2018-02-16T01:43:47.756Z,95.80
2018-02-16T01:46:15.999Z,95.80
2018-02-16T01:48:44.253Z,95.80
2018-02-16T01:51:13.285Z,95.80
2018-02-16T01:53:41.535Z,95.70
2018-02-16T01:56:09.807Z,95.80
2018-02-16T01:58:38.210Z,95.80
2018-02-16T02:01:06.550Z,95.80
2018-02-16T02:03:35.608Z,95.80
2018-02-16T02:06:03.854Z,95.80
2018-02-16T02:08:32.129Z,95.90
2018-02-16T02:13:51.114Z,96.00
2018-02-16T02:16:19.370Z,95.90
2018-02-16T02:18:47.638Z,96.00
2018-02-16T02:21:16.656Z,96.00
2018-02-16T02:23:44.936Z,96.00
2018-02-16T02:26:13.204Z,95.90
2018-02-16T02:28:41.472Z,96.00
2018-02-16T02:31:09.745Z,96.00
2018-02-16T02:33:38.000Z,96.00
2018-02-16T02:36:06.272Z,96.10
2018-02-16T02:38:35.279Z,96.10
2018-02-16T02:41:03.542Z,96.00
2018-02-16T02:43:31.859Z,96.40
2018-02-16T02:46:00.120Z,96.00
2018-02-16T02:48:28.402Z,96.00
2018-02-16T02:50:56.659Z,96.00
2018-02-16T02:53:24.974Z,96.00
2018-02-16T02:55:54.758Z,96.10
2018-02-16T02:58:23.011Z,96.10
2018-02-16T03:00:51.291Z,96.10
2018-02-16T03:03:19.548Z,96.10
2018-02-16T03:05:47.943Z,96.20
2018-02-16T03:08:16.251Z,96.10
2018-02-16T03:10:44.513Z,96.10
2018-02-16T03:13:12.769Z,96.10
2018-02-16T03:15:41.039Z,96.10
2018-02-16T03:18:09.327Z,96.20
2018-02-16T03:20:37.610Z,96.10
2018-02-16T03:23:05.869Z,96.00
2018-02-16T03:25:34.152Z,96.10
2018-02-16T03:28:02.414Z,96.00
2018-02-16T03:30:30.681Z,96.10
2018-02-16T03:32:58.932Z,96.10
2018-02-16T03:35:27.972Z,96.10
2018-02-16T03:37:56.246Z,96.00
2018-02-16T03:40:24.509Z,96.10
2018-02-16T03:42:52.776Z,96.00
2018-02-16T03:45:21.039Z,96.00
2018-02-16T03:47:50.059Z,96.00
2018-02-16T03:50:18.410Z,96.00
2018-02-16T03:52:46.674Z,95.90
2018-02-16T03:55:15.744Z,95.90
2018-02-16T03:57:44.007Z,95.80
2018-02-16T04:00:12.622Z,95.80
2018-02-16T04:02:40.843Z,95.80
2018-02-16T04:05:09.110Z,95.80
2018-02-16T04:07:37.680Z,95.70
2018-02-16T04:10:05.975Z,95.70
2018-02-16T04:12:34.279Z,95.60
2018-02-16T04:15:02.533Z,96.00
2018-02-16T04:17:30.806Z,95.70
2018-02-16T04:19:59.073Z,95.60
2018-02-16T04:22:27.319Z,95.60
2018-02-16T04:24:55.582Z,95.60
2018-02-16T04:27:23.872Z,95.70
2018-02-16T04:29:52.231Z,95.60
2018-02-16T04:32:21.251Z,95.80
2018-02-16T04:34:49.518Z,95.80
2018-02-16T04:37:17.781Z,95.70
2018-02-16T04:39:46.778Z,95.70
2018-02-16T04:42:15.172Z,95.70
2018-02-16T04:44:43.431Z,95.70
2018-02-16T04:47:11.687Z,95.80
2018-02-16T04:49:40.710Z,95.80
2018-02-16T04:52:08.970Z,95.80
2018-02-16T04:54:37.236Z,95.80
2018-02-16T04:57:05.531Z,95.80
2018-02-16T04:59:33.801Z,95.60
2018-02-16T05:02:02.047Z,95.60
2018-02-16T05:04:31.241Z,95.60
2018-02-16T05:06:59.490Z,95.50
2018-02-16T05:09:27.754Z,96.00
2018-02-16T05:11:55.996Z,95.60
2018-02-16T05:14:24.254Z,95.60
2018-02-16T05:16:53.295Z,95.60
2018-02-16T05:19:21.558Z,95.60
2018-02-16T05:21:49.806Z,95.50
2018-02-16T05:24:18.059Z,95.60
2018-02-16T05:26:47.094Z,95.70
2018-02-16T05:29:15.358Z,95.60
2018-02-16T05:31:43.649Z,95.70
2018-02-16T05:34:11.894Z,95.70
2018-02-16T05:36:40.244Z,95.70
2018-02-16T05:39:08.492Z,95.70
2018-02-16T05:41:36.770Z,95.70
2018-02-16T05:44:05.041Z,95.70
2018-02-16T05:46:33.319Z,95.70
2018-02-16T05:49:01.712Z,95.70
2018-02-16T05:51:29.978Z,95.90
2018-02-16T05:53:58.272Z,95.60
2018-02-16T05:56:27.299Z,95.60
2018-02-16T05:58:55.576Z,95.50
2018-02-16T06:01:23.844Z,95.60
2018-02-16T06:03:52.110Z,95.70
2018-02-16T06:06:21.136Z,95.70
2018-02-16T06:08:49.548Z,95.70
2018-02-16T06:11:17.775Z,95.70
2018-02-16T06:13:46.195Z,95.70
2018-02-16T06:16:14.452Z,95.70
2018-02-16T06:18:42.744Z,95.60
2018-02-16T06:21:11.262Z,95.60
2018-02-16T06:23:40.299Z,95.60
2018-02-16T06:26:08.582Z,95.50
2018-02-16T06:28:36.849Z,95.60
2018-02-16T06:31:05.124Z,95.50
2018-02-16T06:33:33.374Z,95.50
2018-02-16T06:36:01.633Z,95.60
2018-02-16T06:38:30.062Z,95.60
2018-02-16T06:40:58.461Z,95.50
2018-02-16T06:43:26.694Z,95.70
2018-02-16T06:45:54.950Z,95.60
2018-02-16T06:48:23.221Z,95.70
2018-02-16T06:50:51.487Z,95.70
2018-02-16T06:53:19.850Z,95.70
2018-02-16T06:55:48.902Z,95.60
2018-02-16T06:58:17.168Z,95.60
2018-02-16T07:00:45.430Z,95.60
2018-02-16T07:03:13.861Z,95.50
2018-02-16T07:05:42.215Z,95.50
2018-02-16T07:08:10.429Z,95.50
2018-02-16T07:10:39.504Z,95.70
2018-02-16T07:13:07.759Z,95.60
2018-02-16T07:15:36.059Z,95.70
2018-02-16T07:18:04.269Z,95.70
2018-02-16T07:20:32.529Z,95.60
2018-02-16T07:23:00.827Z,95.70
2018-02-16T07:25:29.093Z,95.70
2018-02-16T07:27:57.346Z,95.70
2018-02-16T07:30:25.614Z,95.70
2018-02-16T07:32:54.651Z,95.70
2018-02-16T07:35:23.154Z,95.70
2018-02-16T07:37:51.433Z,95.90
2018-02-16T07:40:19.692Z,95.90
2018-02-16T07:42:47.960Z,95.60
2018-02-16T07:45:16.274Z,95.50
2018-02-16T07:47:45.307Z,95.40
2018-02-16T07:50:13.599Z,95.30
2018-02-16T07:52:41.851Z,95.20
2018-02-16T07:55:10.131Z,95.10
2018-02-16T07:57:38.383Z,95.20
2018-02-16T08:00:07.402Z,95.00
2018-02-16T08:02:35.670Z,94.90
2018-02-16T08:05:04.030Z,94.80
2018-02-16T08:07:33.026Z,94.60
2018-02-16T08:10:01.306Z,94.60
2018-02-16T08:12:29.558Z,94.40
2018-02-16T08:14:58.582Z,94.20
2018-02-16T08:17:26.842Z,94.10
2018-02-16T08:19:55.090Z,94.00
2018-02-16T08:22:24.146Z,93.90
2018-02-16T08:24:52.479Z,93.90
2018-02-16T08:27:21.482Z,94.00
2018-02-16T08:29:49.771Z,94.00
2018-02-16T08:32:18.072Z,94.10
2018-02-16T08:34:47.135Z,94.10
2018-02-16T08:37:15.386Z,94.10
2018-02-16T08:39:44.427Z,94.10
2018-02-16T08:42:12.675Z,94.10
2018-02-16T08:44:40.942Z,94.10
2018-02-16T08:47:09.187Z,94.00
2018-02-16T08:49:37.487Z,93.90
2018-02-16T08:52:05.733Z,93.90
2018-02-16T08:54:33.990Z,93.80
2018-02-16T08:57:02.238Z,93.90
2018-02-16T08:59:30.496Z,93.60
2018-02-16T09:01:58.747Z,93.40
2018-02-16T09:04:27.792Z,93.10
2018-02-16T09:06:56.063Z,93.00
2018-02-16T09:09:24.422Z,92.80
2018-02-16T09:11:52.915Z,92.70
2018-02-16T09:14:21.194Z,92.60
2018-02-16T09:16:49.557Z,92.60
2018-02-16T09:19:17.810Z,92.00
2018-02-16T09:21:46.084Z,91.90
2018-02-16T09:24:14.346Z,92.20
2018-02-16T09:26:43.386Z,92.10
2018-02-16T09:29:11.631Z,92.00
2018-02-16T09:31:39.938Z,91.80
2018-02-16T09:34:08.215Z,91.40
2018-02-16T09:36:38.290Z,91.30
2018-02-16T09:39:10.989Z,91.20
2018-02-16T09:41:42.608Z,90.90
2018-02-16T09:44:11.631Z,90.70
2018-02-16T09:46:39.887Z,90.60
2018-02-16T09:49:08.924Z,89.00
2018-02-16T09:51:37.245Z,89.00
2018-02-16T09:54:05.484Z,89.80
2018-02-16T09:56:34.530Z,89.00
2018-02-16T09:59:02.838Z,88.80
2018-02-16T10:01:31.102Z,88.60
2018-02-16T10:03:59.372Z,88.90
2018-02-16T10:06:27.605Z,87.30
2018-02-16T10:08:56.646Z,85.80
2018-02-16T10:11:25.042Z,85.80
2018-02-16T10:13:54.947Z,85.60
2018-02-16T10:16:23.263Z,85.40
2018-02-16T10:18:51.522Z,84.40
2018-02-16T10:21:19.786Z,85.00
2018-02-16T10:23:48.051Z,83.20
2018-02-16T10:26:16.324Z,83.20
2018-02-16T10:28:44.586Z,83.50
2018-02-16T10:31:12.842Z,84.20
2018-02-16T10:33:41.197Z,82.20
2018-02-16T10:36:09.459Z,83.10
2018-02-16T10:38:37.731Z,81.30
2018-02-16T10:41:05.983Z,82.30
2018-02-16T10:43:34.294Z,81.20
2018-02-16T10:46:03.327Z,82.60
2018-02-16T10:48:31.571Z,82.60
2018-02-16T10:50:59.846Z,81.70
2018-02-16T10:53:28.855Z,80.60
2018-02-16T10:55:57.131Z,80.60
2018-02-16T10:58:25.574Z,80.20
2018-02-16T11:00:53.818Z,79.40
2018-02-16T11:03:22.070Z,78.60
2018-02-16T11:05:50.323Z,79.30
2018-02-16T11:08:18.644Z,79.70
2018-02-16T11:10:47.028Z,79.20
2018-02-16T11:13:15.284Z,79.30
2018-02-16T11:15:43.718Z,79.50
2018-02-16T11:18:13.132Z,77.10
2018-02-16T11:20:42.327Z,76.90
2018-02-16T11:23:10.659Z,76.70
2018-02-16T11:25:38.985Z,76.80
2018-02-16T11:28:07.443Z,75.80
2018-02-16T11:30:35.662Z,74.80
2018-02-16T11:33:04.079Z,75.00
2018-02-16T11:35:32.307Z,74.60
2018-02-16T11:38:00.691Z,73.50
2018-02-16T11:40:28.931Z,72.60
2018-02-16T11:42:57.204Z,71.50
2018-02-16T11:45:26.238Z,70.50
2018-02-16T11:47:54.595Z,70.50
2018-02-16T11:50:22.884Z,70.80
2018-02-16T11:52:51.124Z,69.90
2018-02-16T11:55:20.159Z,69.40
2018-02-16T11:57:49.211Z,68.60
2018-02-16T12:00:17.514Z,68.50
2018-02-16T12:02:46.494Z,65.30
2018-02-16T12:05:14.923Z,65.20
2018-02-16T12:07:43.175Z,65.30
2018-02-16T12:10:11.520Z,63.00
2018-02-16T12:12:39.848Z,62.80
2018-02-16T12:15:08.110Z,62.40
2018-02-16T12:17:36.388Z,62.40
2018-02-16T12:20:05.443Z,63.60
2018-02-16T12:22:33.718Z,63.50
2018-02-16T12:25:01.971Z,63.70
2018-02-16T12:27:30.982Z,61.90
2018-02-16T12:29:59.252Z,61.80
2018-02-16T12:32:27.574Z,61.50
2018-02-16T12:34:55.849Z,61.00
2018-02-16T12:37:24.178Z,60.90
2018-02-16T12:39:52.518Z,60.80
2018-02-16T12:42:20.816Z,60.00
2018-02-16T12:44:49.834Z,59.50
2018-02-16T12:47:18.083Z,59.50
2018-02-16T12:49:47.148Z,57.70
2018-02-16T12:52:15.395Z,57.60
2018-02-16T12:54:43.659Z,57.10
2018-02-16T12:57:11.962Z,57.00
2018-02-16T12:59:40.206Z,57.90
2018-02-16T13:02:08.443Z,57.10
2018-02-16T13:04:36.702Z,56.80
2018-02-16T13:07:05.735Z,57.60
2018-02-16T13:09:34.312Z,57.30
2018-02-16T13:12:03.322Z,56.20
2018-02-16T13:14:31.591Z,56.00
2018-02-16T13:16:59.851Z,55.40
2018-02-16T13:19:30.168Z,53.50
2018-02-16T13:21:59.384Z,53.00
2018-02-16T13:24:28.334Z,52.90
2018-02-16T13:26:56.639Z,54.00
2018-02-16T13:29:24.941Z,54.30
2018-02-16T13:31:53.190Z,52.70
2018-02-16T13:34:21.442Z,51.90
2018-02-16T13:36:50.467Z,51.30
2018-02-16T13:39:18.758Z,51.30
2018-02-16T13:41:46.976Z,52.30
2018-02-16T13:44:16.056Z,51.90
2018-02-16T13:46:44.388Z,51.80
2018-02-16T13:49:13.119Z,53.30
2018-02-16T13:51:41.492Z,52.80
2018-02-16T13:54:11.263Z,53.30
2018-02-16T13:56:39.512Z,53.30
2018-02-16T13:59:07.779Z,53.50
2018-02-16T14:01:36.815Z,53.90
2018-02-16T14:04:05.094Z,53.90
2018-02-16T14:06:33.354Z,53.10
2018-02-16T14:09:01.601Z,52.70
2018-02-16T14:11:29.883Z,52.60
2018-02-16T14:13:58.161Z,52.60
2018-02-16T14:16:26.441Z,52.60
2018-02-16T14:18:54.659Z,53.10
2018-02-16T14:21:22.947Z,52.80
2018-02-16T14:23:51.380Z,52.80
2018-02-16T14:26:19.635Z,52.60
2018-02-16T14:28:47.889Z,52.30
2018-02-16T14:31:16.113Z,52.20
2018-02-16T14:33:45.580Z,51.90
2018-02-16T14:36:14.604Z,52.00
2018-02-16T14:38:42.920Z,52.00
2018-02-16T14:41:11.151Z,52.20
2018-02-16T14:43:39.470Z,52.30
2018-02-16T14:46:07.697Z,51.50
2018-02-16T14:48:35.963Z,51.30
2018-02-16T14:51:04.286Z,51.70
2018-02-16T14:53:32.560Z,52.40
2018-02-16T14:56:00.798Z,52.60
2018-02-16T14:58:29.059Z,52.90
2018-02-16T15:00:57.348Z,52.60
2018-02-16T15:03:25.586Z,53.10
2018-02-16T15:05:54.591Z,51.30
2018-02-16T15:08:23.442Z,51.20
2018-02-16T15:10:51.891Z,50.80
2018-02-16T15:13:20.147Z,49.70
2018-02-16T15:15:48.479Z,50.40
2018-02-16T15:18:16.742Z,50.70
2018-02-16T15:20:45.076Z,51.40
2018-02-16T15:23:13.308Z,51.20
2018-02-16T15:25:41.595Z,50.30
2018-02-16T15:28:09.819Z,51.30
2018-02-16T15:30:38.142Z,51.70
2018-02-16T15:33:07.166Z,52.20
2018-02-16T15:35:35.444Z,52.20
2018-02-16T15:38:03.784Z,51.70
2018-02-16T15:40:32.031Z,52.00
2018-02-16T15:43:00.291Z,52.60
2018-02-16T15:45:28.583Z,51.00
2018-02-16T15:47:56.857Z,51.20
2018-02-16T15:50:25.122Z,51.10
2018-02-16T15:52:53.391Z,51.70
2018-02-16T15:55:21.799Z,51.90
2018-02-16T15:57:50.983Z,52.40
2018-02-16T16:00:19.249Z,52.40
2018-02-16T16:02:47.486Z,53.00
2018-02-16T16:05:15.738Z,52.80
2018-02-16T16:07:44.768Z,53.20
2018-02-16T16:10:13.006Z,53.10
2018-02-16T16:12:42.133Z,54.50
2018-02-16T16:15:10.351Z,54.50
2018-02-16T16:17:38.666Z,54.40
2018-02-16T16:20:06.939Z,55.00
2018-02-16T16:22:35.380Z,54.40
2018-02-16T16:25:03.662Z,54.70
2018-02-16T16:27:32.298Z,56.30
2018-02-16T16:30:00.554Z,56.20
2018-02-16T16:32:28.847Z,55.90
2018-02-16T16:34:57.094Z,55.20
2018-02-16T16:37:26.123Z,55.00
2018-02-16T16:39:54.405Z,55.00
2018-02-16T16:42:22.647Z,55.00
2018-02-16T16:44:50.930Z,54.80
2018-02-16T16:47:19.278Z,55.10
2018-02-16T16:49:47.665Z,55.40
2018-02-16T16:52:16.703Z,55.60
2018-02-16T16:54:44.962Z,55.50
2018-02-16T16:57:13.248Z,55.90
2018-02-16T16:59:41.552Z,56.30
2018-02-16T17:02:09.858Z,56.60
2018-02-16T17:04:38.138Z,56.90
2018-02-16T17:07:06.446Z,57.20
2018-02-16T17:09:34.686Z,57.40
2018-02-16T17:12:02.959Z,58.00
2018-02-16T17:14:32.078Z,59.30
2018-02-16T17:17:00.339Z,59.20
2018-02-16T17:19:28.594Z,59.50
2018-02-16T17:21:56.879Z,59.60
2018-02-16T17:24:25.896Z,60.50
2018-02-16T17:26:54.204Z,60.40
2018-02-16T17:29:22.455Z,60.40
2018-02-16T17:31:50.723Z,60.40
2018-02-16T17:34:18.968Z,60.30
2018-02-16T17:36:47.260Z,60.70
2018-02-16T17:39:15.588Z,60.90
2018-02-16T17:41:43.826Z,61.20
2018-02-16T17:44:12.100Z,61.70
2018-02-16T17:46:40.355Z,62.20
2018-02-16T17:49:08.641Z,62.50
2018-02-16T17:51:36.961Z,62.70
2018-02-16T17:54:05.250Z,62.90
2018-02-16T17:56:34.276Z,64.20
2018-02-16T17:59:02.531Z,64.10
2018-02-16T18:01:31.534Z,64.50
2018-02-16T18:03:59.798Z,64.30
2018-02-16T18:06:28.102Z,65.00
2018-02-16T18:08:56.388Z,66.30
2018-02-16T18:11:24.657Z,65.80
2018-02-16T18:13:52.928Z,65.80
2018-02-16T18:16:21.269Z,65.50
2018-02-16T18:18:50.292Z,67.20
2018-02-16T18:21:18.549Z,67.10
2018-02-16T18:23:46.860Z,67.50
2018-02-16T18:26:15.172Z,67.50
2018-02-16T18:28:43.467Z,67.50
2018-02-16T18:31:12.499Z,68.20
2018-02-16T18:33:40.896Z,68.20
2018-02-16T18:36:09.199Z,68.70
2018-02-16T18:38:39.028Z,68.70
2018-02-16T18:41:08.058Z,69.60
2018-02-16T18:43:36.292Z,69.60
2018-02-16T18:46:04.668Z,68.40
2018-02-16T18:48:33.011Z,68.10
2018-02-16T18:51:02.783Z,69.30
2018-02-16T18:53:31.046Z,69.30
2018-02-16T18:55:59.519Z,69.50
2018-02-16T18:58:27.794Z,70.00
2018-02-16T19:00:56.051Z,70.30
2018-02-16T19:03:24.334Z,69.40
2018-02-16T19:05:52.650Z,70.50
2018-02-16T19:08:21.375Z,70.70
2018-02-16T19:10:51.122Z,71.00
2018-02-16T19:13:19.399Z,70.60
2018-02-16T19:15:47.665Z,71.30
2018-02-16T19:18:15.956Z,71.80
2018-02-16T19:20:45.920Z,71.80
2018-02-16T19:23:14.983Z,71.80
2018-02-16T19:25:43.345Z,71.70
2018-02-16T19:28:11.619Z,72.80
2018-02-16T19:30:39.911Z,72.90
2018-02-16T19:33:08.242Z,73.10
2018-02-16T19:35:36.474Z,73.00
2018-02-16T19:38:05.540Z,73.70
2018-02-16T19:40:33.811Z,73.60
2018-02-16T19:43:02.906Z,73.90
2018-02-16T19:45:32.095Z,74.00
2018-02-16T19:48:01.239Z,74.00
2018-02-16T19:50:29.746Z,74.60
2018-02-16T19:52:58.114Z,74.40
2018-02-16T19:55:26.324Z,74.00
2018-02-16T19:57:54.646Z,74.20
2018-02-16T20:00:23.755Z,74.90
2018-02-16T20:02:52.949Z,75.00
2018-02-16T20:05:21.249Z,75.00
2018-02-16T20:07:49.512Z,74.90
2018-02-16T20:10:17.779Z,75.30
2018-02-16T20:12:46.816Z,74.40
2018-02-16T20:15:15.096Z,74.30
2018-02-16T20:17:43.410Z,75.10
2018-02-16T20:20:11.710Z,75.40
2018-02-16T20:22:40.746Z,75.60
2018-02-16T20:25:09.836Z,75.90
2018-02-16T20:27:38.105Z,75.80
2018-02-16T20:30:06.494Z,76.20
2018-02-16T20:32:35.105Z,76.50
2018-02-16T20:35:03.335Z,77.00
2018-02-16T20:37:31.617Z,77.00
2018-02-16T20:40:00.444Z,76.70
2018-02-16T20:42:28.843Z,76.50
2018-02-16T20:44:57.920Z,76.50
2018-02-16T20:47:26.175Z,76.50
2018-02-16T20:49:54.552Z,76.50
2018-02-16T20:52:22.815Z,76.90
2018-02-16T20:54:52.666Z,76.50
2018-02-16T20:57:21.815Z,77.60
2018-02-16T20:59:50.116Z,77.60
2018-02-16T21:02:18.391Z,77.30
2018-02-16T21:04:46.720Z,77.90
2018-02-16T21:07:14.991Z,78.60
2018-02-16T21:09:43.300Z,78.80
2018-02-16T21:12:11.560Z,78.60
2018-02-16T21:14:39.822Z,78.00
2018-02-16T21:17:08.320Z,77.80
2018-02-16T21:19:36.589Z,78.20
2018-02-16T21:22:04.866Z,78.20
2018-02-16T21:24:33.390Z,78.20
2018-02-16T21:27:02.527Z,78.40
2018-02-16T21:29:30.878Z,78.30
2018-02-16T21:31:59.979Z,79.30
2018-02-16T21:34:28.260Z,79.20
2018-02-16T21:36:56.540Z,79.30
2018-02-16T21:39:24.823Z,78.70
2018-02-16T21:41:53.109Z,78.60
2018-02-16T21:44:21.373Z,79.20
2018-02-16T21:46:49.661Z,80.00
2018-02-16T21:49:18.016Z,79.50
2018-02-16T21:51:46.307Z,80.10
2018-02-16T21:54:14.582Z,79.60
2018-02-16T21:56:42.861Z,80.40
2018-02-16T21:59:11.123Z,80.00
2018-02-16T22:01:39.390Z,79.90
2018-02-16T22:04:07.687Z,79.80
2018-02-16T22:06:36.080Z,80.50
2018-02-16T22:09:04.379Z,80.40
2018-02-16T22:11:32.634Z,79.80
2018-02-16T22:14:00.955Z,80.10
2018-02-16T22:16:29.394Z,80.90
2018-02-16T22:18:57.798Z,80.60
2018-02-16T22:21:26.819Z,81.30
2018-02-16T22:23:55.090Z,81.20
2018-02-16T22:26:23.367Z,81.70
2018-02-16T22:28:51.655Z,82.00
2018-02-16T22:31:19.963Z,82.10
2018-02-16T22:33:48.330Z,81.90
2018-02-16T22:36:16.691Z,82.00
2018-02-16T22:38:44.971Z,82.40
2018-02-16T22:41:13.254Z,81.70
2018-02-16T22:43:41.508Z,82.30
2018-02-16T22:46:09.834Z,82.60
2018-02-16T22:48:38.070Z,82.20
2018-02-16T22:51:06.364Z,82.30
2018-02-16T22:53:34.623Z,82.30
2018-02-16T22:56:03.638Z,82.30
2018-02-16T22:58:31.951Z,82.50
2018-02-16T23:01:00.242Z,82.80
2018-02-16T23:03:28.523Z,82.40
2018-02-16T23:05:56.780Z,82.80
2018-02-16T23:08:25.031Z,83.10
2018-02-16T23:10:54.093Z,83.20
2018-02-16T23:13:22.423Z,83.10
2018-02-16T23:15:50.678Z,83.10
2018-02-16T23:18:19.744Z,83.80
2018-02-16T23:20:48.003Z,83.60
2018-02-16T23:23:16.314Z,83.80
2018-02-16T23:25:45.341Z,84.20
2018-02-16T23:28:13.598Z,84.00
2018-02-16T23:30:42.630Z,84.20
2018-02-16T23:33:10.985Z,84.10
2018-02-16T23:35:39.245Z,84.20
2018-02-16T23:38:07.612Z,84.20
2018-02-16T23:40:36.646Z,84.60
2018-02-16T23:43:04.871Z,84.40
2018-02-16T23:45:33.159Z,84.60
2018-02-16T23:48:01.747Z,84.50
2018-02-16T23:50:30.017Z,84.50
2018-02-16T23:52:58.266Z,84.80
2018-02-16T23:55:26.537Z,84.80
2018-02-16T23:57:54.841Z,84.90
